createdAt,value
2023-05-02T00:01:58.784Z,13.19
2023-05-02T00:04:25.375Z,13.15
2023-05-02T00:06:52.978Z,13.20
2023-05-02T00:09:19.429Z,13.24
2023-05-02T00:11:45.935Z,13.31
2023-05-02T00:14:12.295Z,13.37
2023-05-02T00:16:38.759Z,13.39
2023-05-02T00:19:05.971Z,13.47
2023-05-02T00:21:32.935Z,13.38
2023-05-02T00:24:00.021Z,13.36
2023-05-02T00:26:28.411Z,13.34
2023-05-02T00:28:54.825Z,13.42
2023-05-02T00:31:21.104Z,13.47
2023-05-02T00:33:47.499Z,13.48
2023-05-02T00:36:14.953Z,13.38
2023-05-02T00:38:41.447Z,13.40
2023-05-02T00:41:08.437Z,13.35
2023-05-02T00:43:35.434Z,13.23
2023-05-02T00:46:01.806Z,13.17
2023-05-02T00:48:28.982Z,13.20
2023-05-02T00:50:55.638Z,13.21
2023-05-02T00:53:22.199Z,13.16
2023-05-02T00:55:49.570Z,13.11
2023-05-02T00:58:16.868Z,13.11
2023-05-02T01:00:57.524Z,13.04
2023-05-02T01:03:30.194Z,12.89
2023-05-02T01:06:05.383Z,12.79
2023-05-02T01:08:38.978Z,12.89
2023-05-02T01:11:28.784Z,12.91
2023-05-02T01:13:56.572Z,12.96
2023-05-02T01:16:24.169Z,12.89
2023-05-02T01:18:52.108Z,12.88
2023-05-02T01:21:18.686Z,12.92
2023-05-02T01:23:48.121Z,12.94
2023-05-02T01:26:34.651Z,13.00
2023-05-02T01:29:02.320Z,12.92
2023-05-02T01:31:34.529Z,12.87
2023-05-02T01:34:01.323Z,13.03
2023-05-02T01:36:31.112Z,13.14
2023-05-02T01:38:58.695Z,13.25
2023-05-02T01:41:26.307Z,13.27
2023-05-02T01:43:54.053Z,13.33
2023-05-02T01:46:21.422Z,13.23
2023-05-02T01:48:49.416Z,13.14
2023-05-02T01:51:17.874Z,13.14
2023-05-02T01:53:46.786Z,13.19
2023-05-02T01:56:13.981Z,13.27
2023-05-02T01:58:41.437Z,13.36
2023-05-02T02:01:09.510Z,13.42
2023-05-02T02:03:36.051Z,13.44
2023-05-02T02:06:03.871Z,13.39
2023-05-02T02:08:30.332Z,13.24
2023-05-02T02:10:59.338Z,13.20
2023-05-02T02:13:35.612Z,13.12
2023-05-02T02:16:04.339Z,13.15
2023-05-02T02:18:32.584Z,13.05
2023-05-02T02:20:59.208Z,13.00
2023-05-02T02:23:27.837Z,13.02
2023-05-02T02:25:55.464Z,12.97
2023-05-02T02:28:21.859Z,12.96
2023-05-02T02:30:48.309Z,13.01
2023-05-02T02:33:14.987Z,13.10
2023-05-02T02:35:42.859Z,13.19
2023-05-02T02:38:21.712Z,13.19
2023-05-02T02:40:51.890Z,13.19
2023-05-02T02:43:27.774Z,13.23
2023-05-02T02:46:14.778Z,13.08
2023-05-02T02:48:41.760Z,13.07
2023-05-02T02:51:12.842Z,13.14
2023-05-02T02:53:58.792Z,13.19
2023-05-02T02:56:37.220Z,13.28
2023-05-02T02:59:06.760Z,13.34
2023-05-02T03:01:34.323Z,13.26
2023-05-02T03:04:01.162Z,13.23
2023-05-02T03:06:27.952Z,13.17
2023-05-02T03:08:54.317Z,13.10
2023-05-02T03:11:20.663Z,13.14
2023-05-02T03:13:47.331Z,13.19
2023-05-02T03:16:32.525Z,13.26
2023-05-02T03:18:59.385Z,13.26
2023-05-02T03:21:25.763Z,13.26
2023-05-02T03:23:52.710Z,13.23
2023-05-02T03:26:19.312Z,13.18
2023-05-02T03:28:48.892Z,13.09
2023-05-02T03:31:15.927Z,13.11
2023-05-02T03:33:42.762Z,13.20
2023-05-02T03:36:09.223Z,13.22
2023-05-02T03:38:35.867Z,13.14
2023-05-02T03:41:02.973Z,13.06
2023-05-02T03:43:30.017Z,13.05
2023-05-02T03:45:56.394Z,13.02
2023-05-02T03:48:22.927Z,12.98
2023-05-02T03:50:50.022Z,12.97
2023-05-02T03:53:16.928Z,13.03
2023-05-02T03:55:43.618Z,13.14
2023-05-02T03:58:10.641Z,13.15
2023-05-02T04:00:38.217Z,13.18
2023-05-02T04:03:04.586Z,13.22
2023-05-02T04:05:30.970Z,13.28
2023-05-02T04:07:58.050Z,13.30
2023-05-02T04:10:24.441Z,13.20
2023-05-02T04:12:50.779Z,12.96
2023-05-02T04:15:17.284Z,12.93
2023-05-02T04:17:43.700Z,12.97
2023-05-02T04:20:11.832Z,13.02
2023-05-02T04:22:39.654Z,13.02
2023-05-02T04:25:07.137Z,13.02
2023-05-02T04:27:41.201Z,13.07
2023-05-02T04:30:08.078Z,13.18
2023-05-02T04:32:34.449Z,13.29
2023-05-02T04:35:00.927Z,13.17
2023-05-02T04:37:27.750Z,13.02
2023-05-02T04:39:54.048Z,13.05
2023-05-02T04:42:20.413Z,13.17
2023-05-02T04:44:46.912Z,13.25
2023-05-02T04:47:13.286Z,13.17
2023-05-02T04:49:39.632Z,13.10
2023-05-02T04:52:06.376Z,13.08
2023-05-02T04:54:33.304Z,13.16
2023-05-02T04:56:59.639Z,13.23
2023-05-02T04:59:26.120Z,13.24
2023-05-02T05:01:53.363Z,13.23
2023-05-02T05:04:19.838Z,13.20
2023-05-02T05:06:48.925Z,13.19
2023-05-02T05:09:15.925Z,13.11
2023-05-02T05:11:46.237Z,13.02
2023-05-02T05:14:12.643Z,12.92
2023-05-02T05:16:39.181Z,12.95
2023-05-02T05:19:05.628Z,12.97
2023-05-02T05:21:32.034Z,12.98
2023-05-02T05:23:58.606Z,12.98
2023-05-02T05:26:32.208Z,12.93
2023-05-02T05:28:58.657Z,12.93
2023-05-02T05:31:25.221Z,12.90
2023-05-02T05:33:51.628Z,12.94
2023-05-02T05:36:17.957Z,12.90
2023-05-02T05:38:45.219Z,12.96
2023-05-02T05:41:11.598Z,12.97
2023-05-02T05:43:38.415Z,13.10
2023-05-02T05:46:05.341Z,13.11
2023-05-02T05:48:31.873Z,13.03
2023-05-02T05:51:02.922Z,13.05
2023-05-02T05:53:29.644Z,13.09
2023-05-02T05:55:55.984Z,13.13
2023-05-02T05:58:22.300Z,13.07
2023-05-02T06:00:49.330Z,13.07
2023-05-02T06:03:16.034Z,13.02
2023-05-02T06:05:42.753Z,13.01
2023-05-02T06:08:09.186Z,13.07
2023-05-02T06:10:35.540Z,13.10
2023-05-02T06:13:01.839Z,13.26
2023-05-02T06:15:28.750Z,13.35
2023-05-02T06:17:55.696Z,13.42
2023-05-02T06:20:22.508Z,13.54
2023-05-02T06:22:48.898Z,13.62
2023-05-02T06:25:15.538Z,13.55
2023-05-02T06:27:41.889Z,13.53
2023-05-02T06:30:08.596Z,13.52
2023-05-02T06:32:34.951Z,13.47
2023-05-02T06:35:01.393Z,13.47
2023-05-02T06:37:28.668Z,13.50
2023-05-02T06:39:55.486Z,13.52
2023-05-02T06:42:21.815Z,13.52
2023-05-02T06:44:48.180Z,13.52
2023-05-02T06:47:14.536Z,13.42
2023-05-02T06:49:40.928Z,13.51
2023-05-02T06:52:07.338Z,13.51
2023-05-02T06:54:33.841Z,13.50
2023-05-02T06:57:00.169Z,13.62
2023-05-02T06:59:26.616Z,13.58
2023-05-02T07:01:52.923Z,13.58
2023-05-02T07:04:19.364Z,13.62
2023-05-02T07:06:47.541Z,13.68
2023-05-02T07:09:14.117Z,13.81
2023-05-02T07:11:40.531Z,13.72
2023-05-02T07:14:06.913Z,13.74
2023-05-02T07:16:33.688Z,13.63
2023-05-02T07:19:01.758Z,13.65
2023-05-02T07:21:34.008Z,13.69
2023-05-02T07:24:01.276Z,13.77
2023-05-02T07:26:29.079Z,13.83
2023-05-02T07:28:55.408Z,13.83
2023-05-02T07:31:21.731Z,14.00
2023-05-02T07:33:48.029Z,14.05
2023-05-02T07:36:14.324Z,14.17
2023-05-02T07:38:40.891Z,14.23
2023-05-02T07:41:07.403Z,14.19
2023-05-02T07:43:34.010Z,14.22
2023-05-02T07:46:04.217Z,14.20
2023-05-02T07:48:31.298Z,14.31
2023-05-02T07:51:08.486Z,14.29
2023-05-02T07:53:35.417Z,14.12
2023-05-02T07:56:03.711Z,14.22
2023-05-02T07:58:30.116Z,14.16
2023-05-02T08:00:57.815Z,14.29
2023-05-02T08:03:24.401Z,14.23
2023-05-02T08:05:50.914Z,14.23
2023-05-02T08:08:17.246Z,14.24
2023-05-02T08:10:43.823Z,14.28
2023-05-02T08:13:10.279Z,14.28
2023-05-02T08:15:36.853Z,14.22
2023-05-02T08:18:03.326Z,14.21
2023-05-02T08:20:29.963Z,14.25
2023-05-02T08:22:58.569Z,14.29
2023-05-02T08:25:26.414Z,14.46
2023-05-02T08:27:52.769Z,14.54
2023-05-02T08:30:19.264Z,14.51
2023-05-02T08:32:46.896Z,14.53
2023-05-02T08:35:13.436Z,14.53
2023-05-02T08:37:39.896Z,14.57
2023-05-02T08:40:07.808Z,14.46
2023-05-02T08:42:34.763Z,14.60
2023-05-02T08:45:01.183Z,14.70
2023-05-02T08:47:30.059Z,14.64
2023-05-02T08:49:58.242Z,14.65
2023-05-02T08:52:25.863Z,14.81
2023-05-02T08:54:52.648Z,14.99
2023-05-02T08:57:19.081Z,14.95
2023-05-02T08:59:45.416Z,15.01
2023-05-02T09:02:23.804Z,15.09
2023-05-02T09:04:53.864Z,15.15
2023-05-02T09:07:20.206Z,15.24
2023-05-02T09:09:47.080Z,15.41
2023-05-02T09:12:13.971Z,15.49
2023-05-02T09:14:40.298Z,15.53
2023-05-02T09:17:06.690Z,15.67
2023-05-02T09:19:33.304Z,15.80
2023-05-02T09:22:01.264Z,15.80
2023-05-02T09:24:30.011Z,15.52
2023-05-02T09:27:03.747Z,15.51
2023-05-02T09:29:35.659Z,15.49
2023-05-02T09:32:03.620Z,15.61
2023-05-02T09:34:30.986Z,15.49
2023-05-02T09:36:58.031Z,15.37
2023-05-02T09:39:26.288Z,15.15
2023-05-02T09:41:53.108Z,15.46
2023-05-02T09:44:21.187Z,15.67
2023-05-02T09:46:52.289Z,15.84
2023-05-02T09:49:19.357Z,15.98
2023-05-02T09:51:46.684Z,15.66
2023-05-02T09:54:31.900Z,15.77
2023-05-02T09:56:59.731Z,15.64
2023-05-02T09:59:26.188Z,15.47
2023-05-02T10:02:03.315Z,15.03
2023-05-02T10:04:31.037Z,14.93
2023-05-02T10:07:01.494Z,14.92
2023-05-02T10:09:29.475Z,14.85
2023-05-02T10:11:56.479Z,14.69
2023-05-02T10:14:24.672Z,14.74
2023-05-02T10:17:10.441Z,14.89
2023-05-02T10:20:12.371Z,15.02
2023-05-02T10:22:39.083Z,15.21
2023-05-02T10:25:06.575Z,15.21
2023-05-02T10:27:33.193Z,15.23
2023-05-02T10:30:00.181Z,15.37
2023-05-02T10:32:29.762Z,15.46
2023-05-02T10:35:07.946Z,15.46
2023-05-02T10:37:38.386Z,15.59
2023-05-02T10:40:06.287Z,15.48
2023-05-02T10:42:37.553Z,15.50
2023-05-02T10:45:11.234Z,15.75
2023-05-02T10:47:37.573Z,15.71
2023-05-02T10:50:05.107Z,15.77
2023-05-02T10:52:34.243Z,15.84
2023-05-02T10:55:20.021Z,15.99
2023-05-02T10:57:59.085Z,16.03
2023-05-02T11:00:29.532Z,16.06
2023-05-02T11:02:56.190Z,15.95
2023-05-02T11:05:24.399Z,16.04
2023-05-02T11:08:10.847Z,16.17
2023-05-02T11:10:37.194Z,16.13
2023-05-02T11:13:03.955Z,16.28
2023-05-02T11:15:32.770Z,16.57
2023-05-02T11:18:04.007Z,16.63
2023-05-02T11:20:31.858Z,16.87
2023-05-02T11:23:13.642Z,16.99
2023-05-02T11:25:41.642Z,17.06
2023-05-02T11:28:08.425Z,17.32
2023-05-02T11:30:42.062Z,17.47
2023-05-02T11:33:11.863Z,17.73
2023-05-02T11:35:42.053Z,17.93
2023-05-02T11:38:15.982Z,17.75
2023-05-02T11:40:50.034Z,17.79
2023-05-02T11:43:18.246Z,18.02
2023-05-02T11:45:44.740Z,17.71
2023-05-02T11:48:16.459Z,17.62
2023-05-02T11:50:50.204Z,17.77
2023-05-02T11:53:24.240Z,17.79
2023-05-02T11:55:54.525Z,17.95
2023-05-02T11:58:23.894Z,17.94
2023-05-02T12:00:51.198Z,17.72
2023-05-02T12:03:22.597Z,17.71
2023-05-02T12:05:49.664Z,17.69
2023-05-02T12:08:29.817Z,17.85
2023-05-02T12:10:56.518Z,17.89
2023-05-02T12:13:24.494Z,18.06
2023-05-02T12:15:51.977Z,18.14
2023-05-02T12:18:20.772Z,18.22
2023-05-02T12:20:48.511Z,18.38
2023-05-02T12:23:15.071Z,18.48
2023-05-02T12:25:42.213Z,18.57
2023-05-02T12:28:08.976Z,18.55
2023-05-02T12:30:38.294Z,18.78
2023-05-02T12:33:04.907Z,18.86
2023-05-02T12:35:31.790Z,18.68
2023-05-02T12:38:14.259Z,18.85
2023-05-02T12:40:46.768Z,18.92
2023-05-02T12:43:13.188Z,18.83
2023-05-02T12:45:39.830Z,18.21
2023-05-02T12:48:18.616Z,18.25
2023-05-02T12:50:44.964Z,18.25
2023-05-02T12:53:11.297Z,18.18
2023-05-02T12:55:37.623Z,17.97
2023-05-02T13:01:33.548Z,18.44
2023-05-02T13:04:01.005Z,18.69
2023-05-02T13:06:27.784Z,18.94
2023-05-02T13:08:54.160Z,18.97
2023-05-02T13:11:20.830Z,19.13
2023-05-02T13:13:47.336Z,19.18
2023-05-02T13:16:13.784Z,19.10
2023-05-02T13:18:40.423Z,19.09
2023-05-02T13:21:06.870Z,19.24
2023-05-02T13:23:33.234Z,19.43
2023-05-02T13:26:00.357Z,19.62
2023-05-02T13:28:26.942Z,19.84
2023-05-02T13:30:53.412Z,20.14
2023-05-02T13:33:19.941Z,20.47
2023-05-02T13:35:46.640Z,20.63
2023-05-02T13:38:13.018Z,20.28
2023-05-02T13:40:39.472Z,20.51
2023-05-02T13:43:05.796Z,20.69
2023-05-02T13:45:32.198Z,20.56
2023-05-02T13:47:58.604Z,20.59
2023-05-02T13:50:25.016Z,20.68
2023-05-02T13:52:51.323Z,20.73
2023-05-02T13:55:17.797Z,20.52
2023-05-02T13:57:44.301Z,20.48
2023-05-02T14:00:11.602Z,20.50
2023-05-02T14:02:38.718Z,20.73
2023-05-02T14:05:05.630Z,20.48
2023-05-02T14:07:32.038Z,20.23
2023-05-02T14:09:58.929Z,20.14
2023-05-02T14:12:25.836Z,20.06
2023-05-02T14:14:52.256Z,19.98
2023-05-02T14:17:18.981Z,19.56
2023-05-02T14:19:45.403Z,19.12
2023-05-02T14:22:12.033Z,18.49
2023-05-02T14:24:38.375Z,18.59
2023-05-02T14:27:06.807Z,18.68
2023-05-02T14:29:33.263Z,18.71
2023-05-02T14:31:59.698Z,18.46
2023-05-02T14:34:27.107Z,18.37
2023-05-02T14:36:53.542Z,18.22
2023-05-02T14:39:19.900Z,18.48
2023-05-02T14:41:46.286Z,18.69
2023-05-02T14:44:13.194Z,19.02
2023-05-02T14:46:40.020Z,19.18
2023-05-02T14:49:06.872Z,19.37
2023-05-02T14:51:33.304Z,19.48
2023-05-02T14:54:00.764Z,19.59
2023-05-02T14:56:27.504Z,19.59
2023-05-02T14:58:53.914Z,19.51
2023-05-02T15:01:21.207Z,19.26
2023-05-02T15:04:04.971Z,18.90
2023-05-02T15:06:32.744Z,18.54
2023-05-02T15:08:59.414Z,18.57
2023-05-02T15:11:25.848Z,18.36
2023-05-02T15:13:52.157Z,18.08
2023-05-02T15:16:18.582Z,17.81
2023-05-02T15:18:45.387Z,17.45
2023-05-02T15:21:11.967Z,17.38
2023-05-02T15:23:38.295Z,17.27
2023-05-02T15:26:04.778Z,17.18
2023-05-02T15:28:32.058Z,17.02
2023-05-02T15:30:58.361Z,17.07
2023-05-02T15:33:55.850Z,17.25
2023-05-02T15:36:26.430Z,17.49
2023-05-02T15:39:07.527Z,17.25
2023-05-02T15:41:33.905Z,16.88
2023-05-02T15:44:02.170Z,17.11
2023-05-02T15:46:28.682Z,17.15
2023-05-02T15:48:55.080Z,17.27
2023-05-02T15:51:21.463Z,17.30
2023-05-02T15:53:52.206Z,17.29
2023-05-02T15:56:20.776Z,17.26
2023-05-02T15:58:47.248Z,17.33
2023-05-02T16:01:13.619Z,17.03
2023-05-02T16:03:40.030Z,16.63
2023-05-02T16:06:07.634Z,16.46
2023-05-02T16:08:34.043Z,16.63
2023-05-02T16:11:01.755Z,16.71
2023-05-02T16:13:28.090Z,16.79
2023-05-02T16:15:55.715Z,16.64
2023-05-02T16:18:27.855Z,16.62
2023-05-02T16:20:55.810Z,16.70
2023-05-02T16:23:22.275Z,16.69
2023-05-02T16:25:48.652Z,16.92
2023-05-02T16:28:15.327Z,17.15
2023-05-02T16:30:41.839Z,17.33
2023-05-02T16:33:08.302Z,17.27
2023-05-02T16:35:34.662Z,17.32
2023-05-02T16:38:01.658Z,17.38
2023-05-02T16:40:28.554Z,17.36
2023-05-02T16:42:55.318Z,17.36
2023-05-02T16:45:21.725Z,17.44
2023-05-02T16:47:49.406Z,17.43
2023-05-02T16:50:16.646Z,17.46
2023-05-02T16:52:44.408Z,17.22
2023-05-02T16:55:11.139Z,17.27
2023-05-02T16:57:39.013Z,17.15
2023-05-02T17:00:06.004Z,16.88
2023-05-02T17:02:33.529Z,16.84
2023-05-02T17:05:01.816Z,16.82
2023-05-02T17:07:31.453Z,16.86
2023-05-02T17:09:57.942Z,17.00
2023-05-02T17:12:25.723Z,17.15
2023-05-02T17:14:52.086Z,17.12
2023-05-02T17:17:22.638Z,17.07
2023-05-02T17:19:49.589Z,17.08
2023-05-02T17:22:16.515Z,17.01
2023-05-02T17:24:43.219Z,17.09
2023-05-02T17:27:11.008Z,17.17
2023-05-02T17:29:37.373Z,17.16
2023-05-02T17:32:03.674Z,17.17
2023-05-02T17:34:30.660Z,17.26
2023-05-02T17:36:57.685Z,17.25
2023-05-02T17:39:23.985Z,17.30
2023-05-02T17:41:50.442Z,17.20
2023-05-02T17:44:17.004Z,17.08
2023-05-02T17:46:43.483Z,17.05
2023-05-02T17:49:10.272Z,16.93
2023-05-02T17:51:36.604Z,16.85
2023-05-02T17:54:03.155Z,16.92
2023-05-02T17:56:30.016Z,16.85
2023-05-02T17:58:56.575Z,16.72
2023-05-02T18:01:22.948Z,16.69
2023-05-02T18:03:49.984Z,16.61
2023-05-02T18:06:17.124Z,16.54
2023-05-02T18:08:43.933Z,16.32
2023-05-02T18:11:16.588Z,16.27
2023-05-02T18:13:44.002Z,16.27
2023-05-02T18:16:11.226Z,16.21
2023-05-02T18:18:38.614Z,16.15
2023-05-02T18:21:06.073Z,16.13
2023-05-02T18:23:33.926Z,16.06
2023-05-02T18:26:00.387Z,16.01
2023-05-02T18:28:27.046Z,16.03
2023-05-02T18:30:53.367Z,15.96
2023-05-02T18:33:19.980Z,15.97
2023-05-02T18:35:47.501Z,15.92
2023-05-02T18:38:14.403Z,15.86
2023-05-02T18:40:40.897Z,15.85
2023-05-02T18:43:07.912Z,15.85
2023-05-02T18:45:35.720Z,15.90
2023-05-02T18:48:03.681Z,15.90
2023-05-02T18:50:30.367Z,15.68
2023-05-02T18:52:56.879Z,15.51
2023-05-02T18:55:25.275Z,15.41
2023-05-02T18:57:52.137Z,15.45
2023-05-02T19:00:20.271Z,15.52
2023-05-02T19:02:47.500Z,15.55
2023-05-02T19:05:14.924Z,15.47
2023-05-02T19:07:41.241Z,15.32
2023-05-02T19:10:07.716Z,15.32
2023-05-02T19:12:34.851Z,15.23
2023-05-02T19:15:01.407Z,15.23
2023-05-02T19:17:28.088Z,15.20
2023-05-02T19:19:56.205Z,15.21
2023-05-02T19:22:23.933Z,15.27
2023-05-02T19:24:50.877Z,15.19
2023-05-02T19:27:17.221Z,15.11
2023-05-02T19:29:43.579Z,15.02
2023-05-02T19:32:10.105Z,14.89
2023-05-02T19:34:36.955Z,14.84
2023-05-02T19:37:04.030Z,14.90
2023-05-02T19:39:31.464Z,14.84
2023-05-02T19:41:57.855Z,14.91
2023-05-02T19:44:24.152Z,14.90
2023-05-02T19:46:51.065Z,14.79
2023-05-02T19:49:17.596Z,14.76
2023-05-02T19:51:44.118Z,14.69
2023-05-02T19:54:10.542Z,14.66
2023-05-02T19:56:37.394Z,14.58
2023-05-02T19:59:03.706Z,14.57
2023-05-02T20:01:31.545Z,14.69
2023-05-02T20:03:58.549Z,14.73
2023-05-02T20:06:25.607Z,14.67
2023-05-02T20:08:52.881Z,14.55
2023-05-02T20:11:19.434Z,14.45
2023-05-02T20:13:45.824Z,14.47
2023-05-02T20:16:17.401Z,14.58
2023-05-02T20:18:43.792Z,14.65
2023-05-02T20:21:10.709Z,14.67
2023-05-02T20:23:37.053Z,14.76
2023-05-02T20:26:03.486Z,14.76
2023-05-02T20:28:29.943Z,14.82
2023-05-02T20:30:56.233Z,14.77
2023-05-02T20:33:27.560Z,14.68
2023-05-02T20:35:59.965Z,14.65
2023-05-02T20:38:26.796Z,14.65
2023-05-02T20:40:53.200Z,14.62
2023-05-02T20:43:19.884Z,14.64
2023-05-02T20:45:46.745Z,14.64
2023-05-02T20:48:15.248Z,14.61
2023-05-02T20:50:41.584Z,14.65
2023-05-02T20:53:07.930Z,14.64
2023-05-02T20:55:35.992Z,14.67
2023-05-02T20:58:02.309Z,14.62
2023-05-02T21:00:29.731Z,14.60
2023-05-02T21:02:56.058Z,14.65
2023-05-02T21:05:22.376Z,14.67
2023-05-02T21:07:48.748Z,14.46
2023-05-02T21:10:15.827Z,14.30
2023-05-02T21:12:42.201Z,14.19
2023-05-02T21:15:08.741Z,14.10
2023-05-02T21:17:35.120Z,14.11
2023-05-02T21:20:02.000Z,14.17
2023-05-02T21:22:28.650Z,14.25
2023-05-02T21:24:54.918Z,14.34
2023-05-02T21:27:21.405Z,14.23
2023-05-02T21:29:47.866Z,14.16
2023-05-02T21:32:14.398Z,14.16
2023-05-02T21:34:40.925Z,14.19
2023-05-02T21:37:08.161Z,14.17
2023-05-02T21:39:34.482Z,14.16
2023-05-02T21:42:01.396Z,14.11
2023-05-02T21:44:27.791Z,14.10
2023-05-02T21:46:54.262Z,13.68
2023-05-02T21:49:20.671Z,13.55
2023-05-02T21:51:46.976Z,13.58
2023-05-02T21:54:13.371Z,13.51
2023-05-02T21:56:39.670Z,13.42
2023-05-02T21:59:06.051Z,13.48
2023-05-02T22:01:32.389Z,13.55
2023-05-02T22:03:58.866Z,13.48
2023-05-02T22:06:25.327Z,13.34
2023-05-02T22:08:52.367Z,13.39
2023-05-02T22:11:21.599Z,13.31
2023-05-02T22:13:48.315Z,13.27
2023-05-02T22:16:15.455Z,13.19
2023-05-02T22:18:44.614Z,13.16
2023-05-02T22:21:12.176Z,13.07
2023-05-02T22:23:38.953Z,13.17
2023-05-02T22:26:05.384Z,13.21
2023-05-02T22:28:31.793Z,13.21
2023-05-02T22:30:58.105Z,13.15
2023-05-02T22:33:24.931Z,13.19
2023-05-02T22:35:51.375Z,13.17
2023-05-02T22:38:19.491Z,13.04
2023-05-02T22:40:46.415Z,13.00
2023-05-02T22:43:12.872Z,13.09
2023-05-02T22:45:39.306Z,13.09
2023-05-02T22:48:07.043Z,13.15
2023-05-02T22:50:34.146Z,13.04
2023-05-02T22:53:03.581Z,13.03
2023-05-02T22:55:29.923Z,13.00
2023-05-02T22:57:56.656Z,12.98
2023-05-02T23:00:23.379Z,12.85
2023-05-02T23:02:49.897Z,12.87
2023-05-02T23:05:16.274Z,12.95
2023-05-02T23:07:42.612Z,12.90
2023-05-02T23:10:09.397Z,12.86
2023-05-02T23:12:35.950Z,12.87
2023-05-02T23:15:02.340Z,12.98
2023-05-02T23:17:28.719Z,13.02
2023-05-02T23:19:55.054Z,12.88
2023-05-02T23:22:21.441Z,12.75
2023-05-02T23:24:48.365Z,12.74
2023-05-02T23:27:15.077Z,12.62
2023-05-02T23:29:41.729Z,12.48
2023-05-02T23:32:09.080Z,12.44
2023-05-02T23:34:39.277Z,12.49
2023-05-02T23:37:07.013Z,12.59
2023-05-02T23:39:34.148Z,12.59
2023-05-02T23:42:00.849Z,12.64
2023-05-02T23:44:27.215Z,12.68
2023-05-02T23:46:53.622Z,12.81
2023-05-02T23:49:20.471Z,12.75
2023-05-02T23:51:46.931Z,12.83
2023-05-02T23:54:13.408Z,12.77
2023-05-02T23:56:39.711Z,12.54
2023-05-02T23:59:06.228Z,12.39
